Moore Haven, Florida
Current Conditions -  °F | °C
As of 7:15 PM on Friday 28 Nov 2014 (Local Time) from KIMM Reporting Station
Clear Clear  
Wind Chill: 52°   Ceiling: Unl
Heat Index: 52°   Visibility: 10mi
Dew Point: 45°   Wind: 3mph
Humidity: 76%   Direction: 350°N
Pressure: 30.24"   Gusts: NA
Location:  26.83°N, 81.09°W
Report Text: KIMM 290015Z AUTO 35003KT 10SM CLR 11/07 A3024 RMK A01 P000
Loading
Personal Weather Stations






























Interactive Weather Map New forecast layout! Learn more

10-Day Weather Forecast

Advertisements
Track Severe Weather on mobile